Time,TemperatureF,DewpointF,PressureIn,WindDirection,WindDirectionDegrees,WindSpeedMPH,WindSpeedGustMPH,Humidity,HourlyPrecipIn,Conditions,Clouds,dailyrainin,SolarRadiationWatts/m^2,SoftwareType,DateUTC
2013-08-27 00:01:00,56.0,45.0,-100.00,SE,124,5.0,6.0,67,0.00,,,0.00,0.000000,,2013-08-27 07:01:00,
2013-08-27 00:12:00,56.0,45.0,-100.00,SE,124,5.0,6.0,67,0.00,,,0.00,0.000000,,2013-08-27 07:12:00,
2013-08-27 00:42:00,56.0,45.0,-100.00,SE,124,6.0,8.0,67,0.00,,,0.00,0.000000,,2013-08-27 07:42:00,
2013-08-27 00:52:00,56.0,45.0,-100.00,SE,124,6.0,8.0,67,0.00,,,0.00,0.000000,,2013-08-27 07:52:00,
2013-08-27 01:01:00,56.0,45.0,-100.00,SE,124,6.0,8.0,67,0.00,,,0.00,0.000000,,2013-08-27 08:01:00,
2013-08-27 01:11:00,56.0,45.0,-100.00,SE,124,6.0,8.0,67,0.00,,,0.00,0.000000,,2013-08-27 08:11:00,
2013-08-27 01:42:00,55.0,45.0,-100.00,ESE,110,7.0,10.0,69,0.00,,,0.00,0.000000,,2013-08-27 08:42:00,
2013-08-27 01:52:00,55.0,45.0,-100.00,ESE,110,7.0,10.0,69,0.00,,,0.00,0.000000,,2013-08-27 08:52:00,
2013-08-27 02:01:00,55.0,45.0,-100.00,ESE,110,7.0,10.0,69,0.00,,,0.00,0.000000,,2013-08-27 09:01:00,
2013-08-27 02:11:00,55.0,45.0,-100.00,ESE,110,7.0,10.0,69,0.00,,,0.00,0.000000,,2013-08-27 09:11:00,
2013-08-27 02:14:00,55.0,44.0,-100.00,ESE,120,5.0,7.0,66,0.00,,,0.00,0.000000,,2013-08-27 09:14:00,
2013-08-27 02:43:00,55.0,44.0,-100.00,ESE,120,5.0,7.0,66,0.00,,,0.00,0.000000,,2013-08-27 09:43:00,
2013-08-27 02:54:00,55.0,44.0,-100.00,ESE,120,5.0,7.0,66,0.00,,,0.00,0.000000,,2013-08-27 09:54:00,
2013-08-27 03:05:00,55.0,44.0,-100.00,ESE,120,5.0,7.0,66,0.00,,,0.00,0.000000,,2013-08-27 10:05:00,
2013-08-27 03:43:00,56.0,45.0,-100.00,ESE,112,5.0,7.0,67,0.00,,,-99.99,0.000000,,2013-08-27 10:43:00,
2013-08-27 03:53:00,56.0,45.0,-100.00,ESE,112,5.0,7.0,67,0.00,,,-99.99,0.000000,,2013-08-27 10:53:00,
2013-08-27 04:03:00,56.0,45.0,-100.00,ESE,112,5.0,7.0,67,0.00,,,-99.99,0.000000,,2013-08-27 11:03:00,
2013-08-27 04:12:00,56.0,45.0,-100.00,ESE,112,5.0,7.0,67,0.00,,,-99.99,0.000000,,2013-08-27 11:12:00,
2013-08-27 04:42:00,55.0,44.0,-100.00,ESE,108,3.0,7.0,66,0.00,,,0.00,0.000000,,2013-08-27 11:42:00,
2013-08-27 04:52:00,55.0,44.0,-100.00,ESE,108,3.0,7.0,66,0.00,,,0.00,0.000000,,2013-08-27 11:52:00,
2013-08-27 05:02:00,55.0,44.0,-100.00,ESE,108,3.0,7.0,66,0.00,,,0.00,0.000000,,2013-08-27 12:02:00,
2013-08-27 05:11:00,55.0,44.0,-100.00,ESE,108,3.0,7.0,66,0.00,,,0.00,0.000000,,2013-08-27 12:11:00,
2013-08-27 05:42:00,54.0,43.0,-100.00,SE,127,3.0,6.0,67,0.00,,,0.00,0.000000,,2013-08-27 12:42:00,
2013-08-27 05:52:00,54.0,43.0,-100.00,SE,127,3.0,6.0,67,0.00,,,0.00,0.000000,,2013-08-27 12:52:00,
2013-08-27 06:01:00,54.0,43.0,-100.00,SE,127,3.0,6.0,67,0.00,,,0.00,0.000000,,2013-08-27 13:01:00,
2013-08-27 06:11:00,54.0,43.0,-100.00,SE,127,3.0,6.0,67,0.00,,,0.00,0.000000,,2013-08-27 13:11:00,
2013-08-27 06:42:00,54.0,44.0,-100.00,NW,320,1.0,4.0,70,0.00,,,0.00,0.000000,,2013-08-27 13:42:00,
2013-08-27 06:52:00,54.0,44.0,-100.00,NW,320,1.0,4.0,70,0.00,,,0.00,0.000000,,2013-08-27 13:52:00,
2013-08-27 07:02:00,54.0,44.0,-100.00,NW,320,1.0,4.0,70,0.00,,,0.00,0.000000,,2013-08-27 14:02:00,
2013-08-27 07:11:00,54.0,44.0,-100.00,NW,320,1.0,4.0,70,0.00,,,0.00,0.000000,,2013-08-27 14:11:00,
2013-08-27 09:46:00,63.0,47.0,-100.00,WNW,282,3.0,5.0,56,0.00,,,0.00,436.000000,,2013-08-27 16:46:00,
2013-08-27 09:55:00,63.0,47.0,-100.00,WNW,282,3.0,5.0,56,0.00,,,0.00,436.000000,,2013-08-27 16:55:00,
2013-08-27 10:04:00,63.0,47.0,-100.00,WNW,282,3.0,5.0,56,0.00,,,0.00,436.000000,,2013-08-27 17:04:00,
2013-08-27 10:13:00,63.0,47.0,-100.00,WNW,282,3.0,5.0,56,0.00,,,0.00,436.000000,,2013-08-27 17:13:00,
2013-08-27 10:43:00,67.0,49.0,-100.00,NNW,338,5.0,8.0,52,0.00,,,0.00,638.000000,,2013-08-27 17:43:00,
2013-08-27 10:52:00,67.0,49.0,-100.00,NNW,338,5.0,8.0,52,0.00,,,0.00,638.000000,,2013-08-27 17:52:00,
2013-08-27 11:02:00,67.0,49.0,-100.00,NNW,338,5.0,8.0,52,0.00,,,0.00,638.000000,,2013-08-27 18:02:00,
2013-08-27 11:12:00,67.0,49.0,-100.00,NNW,338,5.0,8.0,52,0.00,,,0.00,638.000000,,2013-08-27 18:12:00,
2013-08-27 11:42:00,70.0,48.0,-100.00,North,358,7.0,12.0,46,0.00,,,0.00,805.000000,,2013-08-27 18:42:00,
2013-08-27 11:52:00,70.0,48.0,-100.00,North,358,7.0,12.0,46,0.00,,,0.00,805.000000,,2013-08-27 18:52:00,
2013-08-27 12:01:00,70.0,48.0,-100.00,North,358,7.0,12.0,46,0.00,,,0.00,805.000000,,2013-08-27 19:01:00,
2013-08-27 12:11:00,70.0,48.0,-100.00,North,358,7.0,12.0,46,0.00,,,0.00,805.000000,,2013-08-27 19:11:00,
2013-08-27 12:42:00,72.0,48.0,-100.00,NNW,344,5.0,11.0,43,0.00,,,0.00,896.000000,,2013-08-27 19:42:00,
2013-08-27 12:52:00,72.0,48.0,-100.00,NNW,344,5.0,11.0,43,0.00,,,0.00,896.000000,,2013-08-27 19:52:00,
2013-08-27 13:02:00,72.0,48.0,-100.00,NNW,344,5.0,11.0,43,0.00,,,0.00,896.000000,,2013-08-27 20:02:00,
2013-08-27 13:11:00,72.0,48.0,-100.00,NNW,344,5.0,11.0,43,0.00,,,0.00,896.000000,,2013-08-27 20:11:00,